ARG1734 SABE-SAAP
Flight info
| Callsign | ARG1734 |
|---|---|
| Flight time | 0h 42m |
| Altitude | 30000 |
| Route | BIVAM3B BIVAM UW8 UGALA |
| Aircraft | E190/M-SDE3GILORVW/S |
Departure
| Time | 2026-04-15 12:57 |
|---|---|
| Airport | Aeroparque Jorge Newbery (SABE) |
Arrival
| Time | 2026-04-15 13:39 |
|---|---|
| Airport | General Urquiza Airport (SAAP) |
| Time | Latitude | Longitude | Altitude | Speed | Heading |
|---|---|---|---|---|---|
| 2026-04-15 12:37 | -34.55840 | -58.41373 | 28 ft | 0 kts | 207° |
| 2026-04-15 12:48 | -34.55837 | -58.41371 | 28 ft | 2 kts | 207° |
| 2026-04-15 12:48 | -34.55830 | -58.41366 | 28 ft | 3 kts | 211° |
| 2026-04-15 12:48 | -34.55815 | -58.41351 | 28 ft | 3 kts | 243° |
| 2026-04-15 12:49 | -34.55812 | -58.41330 | 28 ft | 3 kts | 285° |
| 2026-04-15 12:49 | -34.55819 | -58.41311 | 28 ft | 1 kts | 297° |
| 2026-04-15 12:49 | -34.55821 | -58.41304 | 28 ft | 0 kts | 297° |
| 2026-04-15 12:50 | -34.55821 | -58.41305 | 28 ft | 0 kts | 297° |
| 2026-04-15 12:51 | -34.55812 | -58.41326 | 28 ft | 4 kts | 297° |
| 2026-04-15 12:52 | -34.55790 | -58.41363 | 28 ft | 6 kts | 306° |
| 2026-04-15 12:52 | -34.55761 | -58.41414 | 28 ft | 7 kts | 298° |
| 2026-04-15 12:52 | -34.55738 | -58.41464 | 28 ft | 8 kts | 298° |
| 2026-04-15 12:52 | -34.55716 | -58.41521 | 28 ft | 8 kts | 276° |
| 2026-04-15 12:53 | -34.55737 | -58.41563 | 28 ft | 5 kts | 214° |
| 2026-04-15 12:53 | -34.55777 | -58.41596 | 28 ft | 6 kts | 214° |
| 2026-04-15 12:53 | -34.55785 | -58.41622 | 28 ft | 4 kts | 283° |
| 2026-04-15 12:53 | -34.55767 | -58.41669 | 28 ft | 8 kts | 296° |
| 2026-04-15 12:54 | -34.55738 | -58.41741 | 28 ft | 11 kts | 296° |
| 2026-04-15 12:54 | -34.55689 | -58.41831 | 28 ft | 15 kts | 305° |
| 2026-04-15 12:54 | -34.55647 | -58.41908 | 28 ft | 6 kts | 303° |
| 2026-04-15 12:54 | -34.55615 | -58.41964 | 28 ft | 10 kts | 305° |
| 2026-04-15 12:55 | -34.55576 | -58.42032 | 28 ft | 11 kts | 305° |
| 2026-04-15 12:55 | -34.55524 | -58.42118 | 28 ft | 14 kts | 307° |
| 2026-04-15 12:55 | -34.55463 | -58.42216 | 28 ft | 8 kts | 307° |
| 2026-04-15 12:55 | -34.55431 | -58.42267 | 28 ft | 9 kts | 307° |
| 2026-04-15 12:56 | -34.55394 | -58.42325 | 28 ft | 7 kts | 307° |
| 2026-04-15 12:56 | -34.55361 | -58.42386 | 28 ft | 10 kts | 288° |
| 2026-04-15 12:56 | -34.55353 | -58.42446 | 28 ft | 6 kts | 279° |
| 2026-04-15 12:56 | -34.55361 | -58.42497 | 28 ft | 8 kts | 226° |
| 2026-04-15 12:57 | -34.55421 | -58.42474 | 28 ft | 18 kts | 124° |
| 2026-04-15 12:57 | -34.55657 | -58.42052 | 28 ft | 102 kts | 124° |
| 2026-04-15 12:57 | -34.56163 | -58.41146 | 128 ft | 152 kts | 124° |
| 2026-04-15 12:57 | -34.56773 | -58.40053 | 832 ft | 162 kts | 123° |
| 2026-04-15 12:58 | -34.57363 | -58.38851 | 1606 ft | 171 kts | 104° |
| 2026-04-15 12:58 | -34.57153 | -58.37408 | 2307 ft | 190 kts | 62° |
| 2026-04-15 12:58 | -34.56219 | -58.36189 | 3047 ft | 208 kts | 38° |
| 2026-04-15 12:58 | -34.54921 | -58.35149 | 3551 ft | 240 kts | 37° |
| 2026-04-15 12:59 | -34.52091 | -58.32730 | 5508 ft | 250 kts | 38° |
| 2026-04-15 12:59 | -34.50662 | -58.31498 | 6560 ft | 254 kts | 37° |
| 2026-04-15 12:59 | -34.49189 | -58.30274 | 7565 ft | 260 kts | 32° |
| 2026-04-15 13:00 | -34.47464 | -58.29526 | 8531 ft | 269 kts | 12° |
| 2026-04-15 13:00 | -34.45572 | -58.29607 | 9502 ft | 279 kts | 350° |
| 2026-04-15 13:00 | -34.43803 | -58.30550 | 10502 ft | 283 kts | 331° |
| 2026-04-15 13:00 | -34.42184 | -58.31919 | 11644 ft | 280 kts | 328° |
| 2026-04-15 13:01 | -34.40583 | -58.33220 | 12582 ft | 281 kts | 329° |
| 2026-04-15 13:01 | -34.38934 | -58.34520 | 13406 ft | 286 kts | 329° |
| 2026-04-15 13:01 | -34.37237 | -58.35869 | 14197 ft | 290 kts | 329° |
| 2026-04-15 13:01 | -34.35566 | -58.37224 | 14988 ft | 293 kts | 328° |
| 2026-04-15 13:02 | -34.33854 | -58.38665 | 15418 ft | 312 kts | 327° |
| 2026-04-15 13:02 | -34.32026 | -58.40251 | 15648 ft | 334 kts | 327° |
| 2026-04-15 13:02 | -34.30091 | -58.41913 | 16192 ft | 343 kts | 327° |
| 2026-04-15 13:02 | -34.28129 | -58.43560 | 17044 ft | 342 kts | 328° |
| 2026-04-15 13:03 | -34.26170 | -58.45175 | 18005 ft | 338 kts | 328° |
| 2026-04-15 13:03 | -34.24238 | -58.46753 | 18913 ft | 335 kts | 327° |
| 2026-04-15 13:03 | -34.22302 | -58.48330 | 19697 ft | 335 kts | 327° |
| 2026-04-15 13:04 | -34.16044 | -58.53438 | 21543 ft | 348 kts | 327° |
| 2026-04-15 13:04 | -34.14239 | -58.54910 | 22037 ft | 352 kts | 327° |
| 2026-04-15 13:04 | -34.12095 | -58.56674 | 22650 ft | 354 kts | 326° |
| 2026-04-15 13:05 | -34.10103 | -58.58427 | 23213 ft | 357 kts | 324° |
| 2026-04-15 13:05 | -34.08076 | -58.60265 | 23764 ft | 360 kts | 324° |
| 2026-04-15 13:05 | -34.06101 | -58.62076 | 24279 ft | 362 kts | 323° |
| 2026-04-15 13:05 | -34.04090 | -58.63926 | 24784 ft | 365 kts | 323° |
| 2026-04-15 13:06 | -34.02064 | -58.65789 | 25293 ft | 367 kts | 323° |
| 2026-04-15 13:06 | -34.00716 | -58.67028 | 25642 ft | 368 kts | 323° |
| 2026-04-15 13:06 | -33.98677 | -58.68900 | 26186 ft | 368 kts | 323° |
| 2026-04-15 13:06 | -33.96631 | -58.70775 | 26745 ft | 368 kts | 323° |
| 2026-04-15 13:07 | -33.94602 | -58.72631 | 27300 ft | 368 kts | 323° |
| 2026-04-15 13:07 | -33.92558 | -58.74500 | 27846 ft | 367 kts | 323° |
| 2026-04-15 13:07 | -33.90526 | -58.76356 | 28359 ft | 367 kts | 323° |
| 2026-04-15 13:07 | -33.87832 | -58.78812 | 28984 ft | 367 kts | 323° |
| 2026-04-15 13:08 | -33.86459 | -58.80063 | 29278 ft | 368 kts | 322° |
| 2026-04-15 13:08 | -33.84411 | -58.81927 | 29684 ft | 370 kts | 322° |
| 2026-04-15 13:08 | -33.82349 | -58.83802 | 29908 ft | 376 kts | 322° |
| 2026-04-15 13:08 | -33.80238 | -58.85722 | 30004 ft | 384 kts | 322° |
| 2026-04-15 13:09 | -33.75867 | -58.89691 | 30025 ft | 403 kts | 322° |
| 2026-04-15 13:09 | -33.71292 | -58.93839 | 30026 ft | 420 kts | 322° |
| 2026-04-15 13:10 | -33.66552 | -58.98128 | 30025 ft | 433 kts | 322° |
| 2026-04-15 13:10 | -33.61724 | -59.02490 | 30023 ft | 432 kts | 322° |
| 2026-04-15 13:11 | -33.56937 | -59.06807 | 30022 ft | 431 kts | 322° |
| 2026-04-15 13:11 | -33.52137 | -59.11131 | 30024 ft | 432 kts | 322° |
| 2026-04-15 13:12 | -33.47325 | -59.15460 | 30024 ft | 431 kts | 322° |
| 2026-04-15 13:12 | -33.42552 | -59.19747 | 30024 ft | 432 kts | 322° |
| 2026-04-15 13:13 | -33.37692 | -59.24107 | 29983 ft | 442 kts | 323° |
| 2026-04-15 13:13 | -33.32693 | -59.28583 | 29957 ft | 445 kts | 323° |
| 2026-04-15 13:14 | -33.27752 | -59.33002 | 29954 ft | 444 kts | 323° |
| 2026-04-15 13:14 | -33.22833 | -59.37395 | 29955 ft | 445 kts | 323° |
| 2026-04-15 13:15 | -33.17866 | -59.41823 | 29955 ft | 445 kts | 323° |
| 2026-04-15 13:15 | -33.12914 | -59.46233 | 29955 ft | 444 kts | 323° |
| 2026-04-15 13:16 | -33.07959 | -59.50639 | 29893 ft | 441 kts | 323° |
| 2026-04-15 13:16 | -33.05543 | -59.52786 | 29570 ft | 424 kts | 324° |
| 2026-04-15 13:16 | -33.03218 | -59.54852 | 29195 ft | 410 kts | 324° |
| 2026-04-15 13:17 | -33.00959 | -59.56857 | 28788 ft | 401 kts | 324° |
| 2026-04-15 13:17 | -32.98730 | -59.58833 | 28362 ft | 402 kts | 324° |
| 2026-04-15 13:17 | -32.96462 | -59.60841 | 27911 ft | 410 kts | 324° |
| 2026-04-15 13:17 | -32.94168 | -59.62870 | 27432 ft | 412 kts | 324° |
| 2026-04-15 13:18 | -32.91886 | -59.64889 | 26936 ft | 407 kts | 324° |
| 2026-04-15 13:18 | -32.89623 | -59.66889 | 26420 ft | 401 kts | 324° |
| 2026-04-15 13:18 | -32.87400 | -59.68854 | 25914 ft | 395 kts | 324° |
| 2026-04-15 13:18 | -32.85210 | -59.70788 | 25408 ft | 391 kts | 324° |
| 2026-04-15 13:19 | -32.83032 | -59.72711 | 24894 ft | 390 kts | 324° |
| 2026-04-15 13:19 | -32.80853 | -59.74632 | 24376 ft | 390 kts | 324° |
| 2026-04-15 13:19 | -32.78674 | -59.76552 | 23861 ft | 389 kts | 324° |
| 2026-04-15 13:19 | -32.76509 | -59.78458 | 23352 ft | 386 kts | 324° |
| 2026-04-15 13:20 | -32.74352 | -59.80357 | 22845 ft | 383 kts | 325° |
| 2026-04-15 13:20 | -32.72228 | -59.82226 | 22343 ft | 380 kts | 325° |
| 2026-04-15 13:20 | -32.70104 | -59.84093 | 21839 ft | 378 kts | 325° |
| 2026-04-15 13:20 | -32.67995 | -59.85947 | 21338 ft | 376 kts | 325° |
| 2026-04-15 13:21 | -32.65896 | -59.87790 | 20837 ft | 374 kts | 325° |
| 2026-04-15 13:21 | -32.63835 | -59.89598 | 20343 ft | 373 kts | 325° |
| 2026-04-15 13:21 | -32.61750 | -59.91426 | 19842 ft | 371 kts | 325° |
| 2026-04-15 13:21 | -32.59664 | -59.93208 | 19352 ft | 368 kts | 327° |
| 2026-04-15 13:22 | -32.57512 | -59.94734 | 19238 ft | 349 kts | 330° |
| 2026-04-15 13:22 | -32.55486 | -59.96153 | 19264 ft | 328 kts | 330° |
| 2026-04-15 13:22 | -32.53566 | -59.97513 | 19275 ft | 308 kts | 330° |
| 2026-04-15 13:22 | -32.51746 | -59.98805 | 19107 ft | 305 kts | 330° |
| 2026-04-15 13:23 | -32.49924 | -60.00099 | 18858 ft | 314 kts | 330° |
| 2026-04-15 13:23 | -32.48037 | -60.01436 | 18564 ft | 319 kts | 330° |
| 2026-04-15 13:23 | -32.46136 | -60.02783 | 18232 ft | 317 kts | 330° |
| 2026-04-15 13:23 | -32.44252 | -60.04118 | 17878 ft | 313 kts | 330° |
| 2026-04-15 13:24 | -32.42399 | -60.05431 | 17504 ft | 307 kts | 331° |
| 2026-04-15 13:24 | -32.40586 | -60.06714 | 17128 ft | 302 kts | 331° |
| 2026-04-15 13:24 | -32.38794 | -60.07980 | 16751 ft | 297 kts | 331° |
| 2026-04-15 13:24 | -32.37030 | -60.09226 | 16375 ft | 294 kts | 331° |
| 2026-04-15 13:25 | -32.35276 | -60.10463 | 16000 ft | 293 kts | 332° |
| 2026-04-15 13:25 | -32.33527 | -60.11695 | 15625 ft | 293 kts | 332° |
| 2026-04-15 13:25 | -32.31728 | -60.12959 | 15217 ft | 309 kts | 332° |
| 2026-04-15 13:25 | -32.29848 | -60.14276 | 14793 ft | 319 kts | 332° |
| 2026-04-15 13:26 | -32.27929 | -60.15621 | 14354 ft | 320 kts | 332° |
| 2026-04-15 13:26 | -32.26035 | -60.16952 | 13928 ft | 315 kts | 332° |
| 2026-04-15 13:26 | -32.24159 | -60.18270 | 13502 ft | 311 kts | 333° |
| 2026-04-15 13:26 | -32.22315 | -60.19566 | 13099 ft | 306 kts | 333° |
| 2026-04-15 13:27 | -32.20494 | -60.20845 | 12694 ft | 302 kts | 333° |
| 2026-04-15 13:27 | -32.18718 | -60.22091 | 12297 ft | 298 kts | 333° |
| 2026-04-15 13:27 | -32.16947 | -60.23333 | 11903 ft | 295 kts | 333° |
| 2026-04-15 13:27 | -32.15194 | -60.24558 | 11601 ft | 288 kts | 332° |
| 2026-04-15 13:28 | -32.13493 | -60.25749 | 11348 ft | 281 kts | 332° |
| 2026-04-15 13:28 | -32.11822 | -60.26917 | 11095 ft | 277 kts | 332° |
| 2026-04-15 13:28 | -32.10157 | -60.28080 | 10845 ft | 280 kts | 332° |
| 2026-04-15 13:28 | -32.08462 | -60.29260 | 10592 ft | 284 kts | 332° |
| 2026-04-15 13:29 | -32.06777 | -60.30435 | 10316 ft | 280 kts | 333° |
| 2026-04-15 13:29 | -32.05115 | -60.31594 | 10030 ft | 274 kts | 333° |
| 2026-04-15 13:29 | -32.03489 | -60.32729 | 9727 ft | 271 kts | 333° |
| 2026-04-15 13:29 | -32.01873 | -60.33855 | 9426 ft | 269 kts | 333° |
| 2026-04-15 13:30 | -32.00256 | -60.34980 | 9118 ft | 270 kts | 333° |
| 2026-04-15 13:30 | -31.98624 | -60.36113 | 8796 ft | 273 kts | 333° |
| 2026-04-15 13:30 | -31.96991 | -60.37247 | 8471 ft | 272 kts | 333° |
| 2026-04-15 13:30 | -31.95389 | -60.38360 | 8134 ft | 270 kts | 333° |
| 2026-04-15 13:31 | -31.93776 | -60.39481 | 7789 ft | 267 kts | 333° |
| 2026-04-15 13:31 | -31.92184 | -60.40588 | 7448 ft | 265 kts | 333° |
| 2026-04-15 13:31 | -31.90596 | -60.41691 | 7103 ft | 264 kts | 333° |
| 2026-04-15 13:31 | -31.89016 | -60.42786 | 6761 ft | 263 kts | 334° |
| 2026-04-15 13:32 | -31.87443 | -60.43878 | 6416 ft | 262 kts | 333° |
| 2026-04-15 13:32 | -31.85874 | -60.44966 | 6075 ft | 261 kts | 334° |
| 2026-04-15 13:32 | -31.84307 | -60.46036 | 5731 ft | 261 kts | 334° |
| 2026-04-15 13:32 | -31.82742 | -60.47110 | 5386 ft | 261 kts | 333° |
| 2026-04-15 13:33 | -31.81114 | -60.48010 | 5025 ft | 250 kts | 349° |
| 2026-04-15 13:33 | -31.79479 | -60.47994 | 4708 ft | 231 kts | 15° |
| 2026-04-15 13:33 | -31.78040 | -60.47310 | 4419 ft | 218 kts | 28° |
| 2026-04-15 13:33 | -31.76736 | -60.46432 | 4136 ft | 207 kts | 36° |
| 2026-04-15 13:34 | -31.75581 | -60.45523 | 3863 ft | 198 kts | 37° |
| 2026-04-15 13:34 | -31.74478 | -60.44614 | 3608 ft | 190 kts | 38° |
| 2026-04-15 13:34 | -31.73412 | -60.43739 | 3354 ft | 185 kts | 39° |
| 2026-04-15 13:34 | -31.72343 | -60.42876 | 3108 ft | 188 kts | 39° |
| 2026-04-15 13:35 | -31.71183 | -60.42108 | 2760 ft | 202 kts | 24° |
| 2026-04-15 13:35 | -31.69701 | -60.42247 | 2437 ft | 228 kts | 347° |
| 2026-04-15 13:35 | -31.68460 | -60.43473 | 2267 ft | 238 kts | 300° |
| 2026-04-15 13:35 | -31.68039 | -60.45257 | 2206 ft | 220 kts | 261° |
| 2026-04-15 13:36 | -31.68527 | -60.46770 | 2157 ft | 181 kts | 222° |
| 2026-04-15 13:36 | -31.69507 | -60.47366 | 2092 ft | 147 kts | 184° |
| 2026-04-15 13:36 | -31.70459 | -60.47164 | 1963 ft | 134 kts | 165° |
| 2026-04-15 13:36 | -31.71352 | -60.47013 | 1780 ft | 127 kts | 161° |
| 2026-04-15 13:37 | -31.72262 | -60.46939 | 1477 ft | 134 kts | 160° |
| 2026-04-15 13:37 | -31.73196 | -60.46980 | 1276 ft | 134 kts | 169° |
| 2026-04-15 13:37 | -31.74100 | -60.47109 | 1111 ft | 127 kts | 171° |
| 2026-04-15 13:37 | -31.74967 | -60.47241 | 998 ft | 127 kts | 178° |
| 2026-04-15 13:38 | -31.75828 | -60.47400 | 863 ft | 124 kts | 181° |
| 2026-04-15 13:38 | -31.76678 | -60.47556 | 685 ft | 122 kts | 186° |
| 2026-04-15 13:38 | -31.77504 | -60.47695 | 458 ft | 119 kts | 187° |
| 2026-04-15 13:38 | -31.78303 | -60.47832 | 299 ft | 113 kts | 188° |
| 2026-04-15 13:39 | -31.79047 | -60.47964 | 253 ft | 93 kts | 189° |
| 2026-04-15 13:39 | -31.79597 | -60.48064 | 253 ft | 68 kts | 188° |
| 2026-04-15 13:39 | -31.80000 | -60.48132 | 253 ft | 55 kts | 188° |
| 2026-04-15 13:39 | -31.80272 | -60.48178 | 253 ft | 18 kts | 188° |
| 2026-04-15 13:40 | -31.80344 | -60.48208 | 253 ft | 10 kts | 223° |
| 2026-04-15 13:40 | -31.80385 | -60.48281 | 253 ft | 12 kts | 270° |
| 2026-04-15 13:40 | -31.80366 | -60.48376 | 253 ft | 12 kts | 303° |
| 2026-04-15 13:40 | -31.80284 | -60.48401 | 253 ft | 15 kts | 8° |
| 2026-04-15 13:41 | -31.80170 | -60.48381 | 253 ft | 18 kts | 8° |
| 2026-04-15 13:41 | -31.80045 | -60.48360 | 253 ft | 20 kts | 8° |
| 2026-04-15 13:41 | -31.79893 | -60.48334 | 253 ft | 24 kts | 8° |
| 2026-04-15 13:41 | -31.79716 | -60.48304 | 253 ft | 28 kts | 9° |
| 2026-04-15 13:42 | -31.79513 | -60.48268 | 253 ft | 31 kts | 8° |
| 2026-04-15 13:42 | -31.79334 | -60.48236 | 253 ft | 22 kts | 8° |
| 2026-04-15 13:42 | -31.79187 | -60.48210 | 253 ft | 17 kts | 8° |
| 2026-04-15 13:42 | -31.79101 | -60.48194 | 253 ft | 11 kts | 7° |
| 2026-04-15 13:43 | -31.79037 | -60.48210 | 253 ft | 4 kts | 287° |
| 2026-04-15 13:43 | -31.79031 | -60.48256 | 253 ft | 8 kts | 278° |
| 2026-04-15 13:43 | -31.79023 | -60.48293 | 253 ft | 4 kts | 299° |
| 2026-04-15 13:43 | -31.79003 | -60.48302 | 253 ft | 3 kts | 13° |
| 2026-04-15 13:44 | -31.78995 | -60.48303 | 253 ft | 1 kts | 331° |
| 2026-04-15 13:44 | -31.78992 | -60.48308 | 253 ft | 1 kts | 294° |
| 2026-04-15 13:44 | -31.78990 | -60.48322 | 253 ft | 0 kts | 281° |